createdAt,value
2023-02-25T00:02:03.503Z,7.63
2023-02-25T00:04:35.057Z,7.13
2023-02-25T00:07:06.263Z,6.53
2023-02-25T00:09:38.976Z,7.40
2023-02-25T00:12:10.315Z,7.10
2023-02-25T00:14:40.753Z,7.53
2023-02-25T00:17:10.839Z,5.80
2023-02-25T00:19:40.925Z,7.13
2023-02-25T00:22:10.886Z,8.30
2023-02-25T00:24:43.638Z,7.90
2023-02-25T00:27:13.619Z,7.40
2023-02-25T00:29:47.360Z,7.67
2023-02-25T00:32:17.735Z,8.47
2023-02-25T00:34:47.917Z,7.87
2023-02-25T00:37:18.438Z,7.97
2023-02-25T00:39:51.375Z,10.47
2023-02-25T00:42:22.740Z,7.93
2023-02-25T00:44:54.145Z,8.53
2023-02-25T00:47:24.132Z,9.07
2023-02-25T00:49:54.293Z,8.50
2023-02-25T00:52:24.439Z,8.83
2023-02-25T00:54:57.079Z,7.43
2023-02-25T00:57:27.043Z,8.60
2023-02-25T00:59:57.329Z,8.30
2023-02-25T01:02:27.593Z,9.60
2023-02-25T01:04:57.622Z,8.20
2023-02-25T01:07:27.678Z,9.03
2023-02-25T01:10:01.112Z,8.40
2023-02-25T01:12:31.194Z,8.17
2023-02-25T01:15:01.312Z,9.20
2023-02-25T01:17:31.659Z,7.93
2023-02-25T01:20:01.651Z,8.93
2023-02-25T01:22:32.313Z,8.40
2023-02-25T01:25:06.925Z,9.67
2023-02-25T01:27:41.039Z,9.30
2023-02-25T01:30:14.248Z,8.97
2023-02-25T01:32:44.716Z,8.57
2023-02-25T01:35:14.713Z,8.97
2023-02-25T01:37:46.979Z,8.90
2023-02-25T01:40:20.813Z,7.67
2023-02-25T01:42:51.076Z,9.47
2023-02-25T01:45:35.311Z,8.93
2023-02-25T01:48:16.988Z,7.63
2023-02-25T01:50:53.076Z,7.77
2023-02-25T01:53:30.728Z,8.40
2023-02-25T01:56:05.471Z,7.93
2023-02-25T01:58:37.152Z,7.40
2023-02-25T02:01:11.300Z,7.33
2023-02-25T02:03:44.070Z,7.20
2023-02-25T02:06:20.823Z,7.57
2023-02-25T02:08:52.679Z,7.80
2023-02-25T02:11:25.297Z,6.30
2023-02-25T02:14:02.089Z,7.97
2023-02-25T02:16:54.306Z,6.43
2023-02-25T02:19:42.062Z,5.93
2023-02-25T02:22:24.245Z,6.30
2023-02-25T02:25:36.569Z,5.87
2023-02-25T02:29:01.014Z,6.10
2023-02-25T02:31:54.155Z,5.30
2023-02-25T02:34:38.616Z,5.70
2023-02-25T02:37:31.605Z,4.70
2023-02-25T02:40:19.760Z,5.40
2023-02-25T02:43:06.650Z,5.03
2023-02-25T02:45:47.017Z,4.60
2023-02-25T02:48:27.343Z,4.20
2023-02-25T02:51:03.650Z,4.80
2023-02-25T02:53:39.936Z,3.73
2023-02-25T02:56:17.465Z,4.50
2023-02-25T02:58:53.919Z,3.33
2023-02-25T03:01:31.298Z,4.20
2023-02-25T03:04:07.283Z,4.97
2023-02-25T03:06:43.129Z,4.33
2023-02-25T03:09:20.856Z,3.87
2023-02-25T03:11:52.498Z,4.07
2023-02-25T03:14:23.000Z,4.53
2023-02-25T03:17:02.422Z,5.23
2023-02-25T03:19:42.787Z,3.37
2023-02-25T03:22:18.218Z,5.03
2023-02-25T03:24:56.541Z,3.77
2023-02-25T03:27:34.602Z,4.00
2023-02-25T03:30:12.771Z,4.10
2023-02-25T03:32:49.055Z,3.43
2023-02-25T03:35:27.028Z,4.00
2023-02-25T03:38:05.013Z,4.10
2023-02-25T03:40:39.417Z,3.80
2023-02-25T03:43:14.980Z,4.83
2023-02-25T03:45:48.069Z,3.40
2023-02-25T03:48:20.876Z,4.37
2023-02-25T03:51:00.330Z,4.53
2023-02-25T03:53:35.138Z,3.57
2023-02-25T03:56:15.560Z,4.47
2023-02-25T03:58:47.488Z,3.90
2023-02-25T04:01:24.237Z,4.23
2023-02-25T04:03:54.289Z,3.80
2023-02-25T04:06:28.136Z,3.17
2023-02-25T04:08:58.364Z,3.00
2023-02-25T04:11:28.578Z,3.03
2023-02-25T04:13:58.525Z,3.57
2023-02-25T04:16:28.643Z,3.20
2023-02-25T04:19:00.307Z,2.40
2023-02-25T04:21:35.943Z,1.73
2023-02-25T04:24:08.027Z,3.20
2023-02-25T04:26:38.505Z,2.07
2023-02-25T04:29:08.908Z,2.23
2023-02-25T04:31:39.116Z,1.53
2023-02-25T04:34:09.397Z,1.90
2023-02-25T04:36:44.278Z,1.80
2023-02-25T04:39:18.160Z,2.60
2023-02-25T04:41:48.718Z,2.10
2023-02-25T04:44:18.694Z,2.00
2023-02-25T04:46:51.839Z,2.00
2023-02-25T04:49:25.080Z,1.63
2023-02-25T04:51:57.590Z,1.97
2023-02-25T04:54:27.566Z,2.13
2023-02-25T04:56:57.528Z,2.00
2023-02-25T04:59:27.594Z,2.30
2023-02-25T05:01:57.579Z,1.70
2023-02-25T05:04:27.606Z,2.43
2023-02-25T05:07:00.218Z,2.33
2023-02-25T05:09:30.297Z,2.00
2023-02-25T05:12:00.266Z,1.87
2023-02-25T05:14:32.927Z,2.07
2023-02-25T05:17:03.025Z,1.60
2023-02-25T05:19:32.969Z,1.47
2023-02-25T05:22:05.612Z,1.63
2023-02-25T05:24:35.620Z,1.67
2023-02-25T05:27:10.231Z,1.60
2023-02-25T05:29:40.184Z,3.20
2023-02-25T05:32:10.396Z,2.30
2023-02-25T05:34:41.568Z,1.90
2023-02-25T05:37:14.103Z,1.43
2023-02-25T05:39:44.213Z,1.40
2023-02-25T05:42:14.262Z,1.70
2023-02-25T05:44:44.527Z,2.20
2023-02-25T05:47:15.218Z,1.73
2023-02-25T05:49:45.454Z,2.40
2023-02-25T05:52:18.157Z,1.60
2023-02-25T05:54:48.437Z,1.53
2023-02-25T05:57:18.665Z,1.37
2023-02-25T05:59:48.834Z,1.10
2023-02-25T06:02:18.896Z,1.20
2023-02-25T06:04:48.938Z,1.50
2023-02-25T06:07:21.524Z,1.63
2023-02-25T06:09:51.450Z,1.63
2023-02-25T06:12:21.431Z,1.37
2023-02-25T06:14:51.408Z,1.30
2023-02-25T06:17:21.335Z,1.50
2023-02-25T06:19:51.866Z,1.80
2023-02-25T06:22:25.438Z,1.50
2023-02-25T06:24:55.410Z,1.27
2023-02-25T06:27:25.417Z,1.10
2023-02-25T06:29:55.373Z,1.50
2023-02-25T06:32:25.581Z,2.07
2023-02-25T06:34:55.662Z,1.47
2023-02-25T06:37:28.214Z,1.53
2023-02-25T06:39:58.144Z,1.70
2023-02-25T06:42:28.228Z,1.40
2023-02-25T06:44:58.234Z,1.50
2023-02-25T06:47:28.446Z,1.30
2023-02-25T06:50:00.126Z,1.30
2023-02-25T06:52:34.266Z,1.33
2023-02-25T06:55:06.791Z,1.40
2023-02-25T06:57:36.883Z,2.43
2023-02-25T07:00:09.830Z,1.67
2023-02-25T07:02:40.117Z,1.13
2023-02-25T07:05:10.929Z,1.37
2023-02-25T07:07:43.477Z,1.67
2023-02-25T07:10:14.956Z,1.50
2023-02-25T07:12:44.914Z,1.50
2023-02-25T07:15:14.878Z,1.83
2023-02-25T07:17:44.825Z,1.70
2023-02-25T07:20:15.917Z,1.57
2023-02-25T07:22:49.333Z,1.60
2023-02-25T07:25:19.625Z,1.33
2023-02-25T07:27:49.782Z,1.97
2023-02-25T07:30:20.568Z,1.90
2023-02-25T07:32:50.685Z,2.00
2023-02-25T07:35:20.954Z,1.70
2023-02-25T07:37:53.658Z,1.90
2023-02-25T07:40:23.665Z,1.30
2023-02-25T07:42:53.968Z,1.70
2023-02-25T07:45:24.678Z,1.40
2023-02-25T07:47:56.296Z,1.83
2023-02-25T07:50:26.284Z,1.63
2023-02-25T07:52:58.846Z,1.53
2023-02-25T07:55:29.151Z,1.43
2023-02-25T07:57:59.110Z,1.80
2023-02-25T08:00:29.457Z,1.33
2023-02-25T08:02:59.522Z,1.53
2023-02-25T08:05:29.564Z,1.40
2023-02-25T08:08:02.125Z,2.10
2023-02-25T08:10:32.669Z,1.20
2023-02-25T08:13:02.653Z,1.20
2023-02-25T08:15:32.634Z,1.10
2023-02-25T08:18:02.653Z,1.57
2023-02-25T08:20:32.600Z,1.60
2023-02-25T08:23:06.313Z,1.63
2023-02-25T08:25:36.366Z,2.00
2023-02-25T08:28:06.418Z,1.20
2023-02-25T08:30:37.284Z,1.37
2023-02-25T08:33:07.499Z,2.00
2023-02-25T08:35:37.447Z,1.67
2023-02-25T08:38:09.928Z,1.57
2023-02-25T08:40:39.915Z,1.50
2023-02-25T08:43:10.936Z,1.60
2023-02-25T08:45:43.818Z,1.53
2023-02-25T08:48:13.964Z,1.53
2023-02-25T08:50:43.889Z,1.90
2023-02-25T08:53:16.489Z,1.60
2023-02-25T08:55:47.363Z,2.10
2023-02-25T08:58:17.583Z,1.37
2023-02-25T09:00:51.945Z,1.67
2023-02-25T09:03:22.291Z,1.90
2023-02-25T09:05:55.036Z,1.70
2023-02-25T09:08:28.381Z,1.13
2023-02-25T09:10:58.334Z,1.43
2023-02-25T09:13:28.422Z,1.57
2023-02-25T09:16:02.824Z,1.90
2023-02-25T09:18:32.967Z,1.37
2023-02-25T09:21:02.942Z,1.63
2023-02-25T09:23:36.030Z,1.50
2023-02-25T09:26:07.589Z,1.60
2023-02-25T09:28:38.461Z,1.40
2023-02-25T09:31:08.857Z,1.70
2023-02-25T09:33:41.936Z,1.70
2023-02-25T09:36:15.697Z,1.33
2023-02-25T09:38:51.889Z,1.70
2023-02-25T09:41:37.556Z,1.47
2023-02-25T09:44:15.295Z,1.67
2023-02-25T09:46:55.161Z,1.50
2023-02-25T09:49:35.658Z,1.37
2023-02-25T09:52:19.131Z,1.33
2023-02-25T09:54:59.251Z,2.33
2023-02-25T09:57:31.778Z,1.30
2023-02-25T10:00:02.484Z,1.50
2023-02-25T10:02:54.071Z,1.70
2023-02-25T10:05:33.304Z,1.33
2023-02-25T10:08:19.020Z,1.30
2023-02-25T10:11:04.753Z,1.97
2023-02-25T10:13:48.852Z,2.20
2023-02-25T10:16:45.777Z,1.10
2023-02-25T10:19:38.443Z,1.20
2023-02-25T10:22:40.405Z,0.90
2023-02-25T10:25:18.784Z,1.17
2023-02-25T10:28:00.592Z,1.00
2023-02-25T10:30:41.633Z,0.83
2023-02-25T10:33:21.417Z,1.20
2023-02-25T10:35:56.023Z,1.30
2023-02-25T10:38:26.025Z,1.00
2023-02-25T10:41:00.675Z,1.30
2023-02-25T10:43:33.274Z,1.00
2023-02-25T10:46:11.127Z,0.90
2023-02-25T10:48:43.562Z,0.77
2023-02-25T10:51:16.623Z,1.20
2023-02-25T10:54:08.458Z,1.23
2023-02-25T10:56:45.985Z,2.10
2023-02-25T10:59:33.553Z,1.63
2023-02-25T11:02:04.839Z,1.60
2023-02-25T11:04:40.316Z,1.60
2023-02-25T11:07:36.150Z,1.87
2023-02-25T11:10:19.558Z,1.30
2023-02-25T11:12:53.143Z,1.10
2023-02-25T11:15:45.614Z,1.00
2023-02-25T11:18:24.666Z,1.20
2023-02-25T11:20:59.374Z,0.90
2023-02-25T11:23:37.121Z,1.90
2023-02-25T11:26:09.590Z,2.00
2023-02-25T11:28:46.590Z,2.10
2023-02-25T11:31:24.892Z,1.07
2023-02-25T11:34:01.341Z,1.13
2023-02-25T11:36:35.839Z,1.30
2023-02-25T11:39:21.006Z,1.10
2023-02-25T11:41:53.441Z,1.67
2023-02-25T11:44:30.550Z,1.10
2023-02-25T11:47:11.107Z,1.10
2023-02-25T11:50:18.140Z,1.27
2023-02-25T11:52:58.352Z,4.13
2023-02-25T11:55:53.416Z,1.40
2023-02-25T11:58:35.131Z,1.40
2023-02-25T12:01:16.074Z,1.40
2023-02-25T12:04:21.031Z,1.73
2023-02-25T12:07:20.398Z,2.20
2023-02-25T12:10:38.216Z,2.40
2023-02-25T12:13:43.046Z,2.67
2023-02-25T12:17:18.515Z,2.70
2023-02-25T12:20:34.676Z,2.47
2023-02-25T12:24:00.803Z,1.80
2023-02-25T12:26:55.814Z,1.53
2023-02-25T12:30:10.583Z,1.60
2023-02-25T12:32:57.464Z,1.43
2023-02-25T12:36:03.882Z,2.03
2023-02-25T12:39:22.250Z,2.50
2023-02-25T12:42:10.810Z,1.90
2023-02-25T12:45:09.356Z,2.00
2023-02-25T12:48:15.942Z,1.83
2023-02-25T12:51:19.228Z,1.60
2023-02-25T12:54:04.278Z,2.30
2023-02-25T12:57:04.862Z,3.60
2023-02-25T13:00:20.073Z,1.90
2023-02-25T13:03:27.257Z,2.33
2023-02-25T13:06:24.326Z,1.83
2023-02-25T13:09:07.332Z,1.80
2023-02-25T13:12:11.618Z,1.87
2023-02-25T13:15:08.090Z,1.90
2023-02-25T13:18:07.042Z,2.20
2023-02-25T13:21:00.359Z,1.73
2023-02-25T13:24:04.026Z,2.20
2023-02-25T13:26:58.248Z,2.10
2023-02-25T13:29:48.388Z,3.10
2023-02-25T13:32:35.422Z,2.20
2023-02-25T13:35:30.840Z,3.20
2023-02-25T13:38:19.705Z,2.00
2023-02-25T13:41:14.078Z,3.10
2023-02-25T13:44:30.038Z,2.20
2023-02-25T13:47:35.002Z,2.90
2023-02-25T13:50:39.491Z,2.00
2023-02-25T13:53:35.030Z,2.17
2023-02-25T13:56:37.523Z,2.57
2023-02-25T13:59:41.330Z,2.43
2023-02-25T14:02:49.740Z,3.70
2023-02-25T14:06:02.174Z,1.80
2023-02-25T14:09:05.043Z,1.57
2023-02-25T14:12:00.453Z,1.57
2023-02-25T14:15:18.740Z,1.53
2023-02-25T14:18:30.507Z,3.60
2023-02-25T14:21:38.773Z,3.30
2023-02-25T14:24:21.746Z,2.70
2023-02-25T14:27:14.177Z,3.83
2023-02-25T14:30:14.817Z,2.23
2023-02-25T14:33:27.558Z,2.00
2023-02-25T14:36:20.719Z,1.70
2023-02-25T14:39:18.426Z,1.80
2023-02-25T14:42:10.879Z,2.80
2023-02-25T14:44:48.091Z,3.80
2023-02-25T14:47:27.195Z,2.00
2023-02-25T14:50:09.577Z,2.07
2023-02-25T14:53:21.868Z,1.80
2023-02-25T14:56:20.468Z,1.63
2023-02-25T14:59:44.563Z,2.03
2023-02-25T15:02:37.049Z,2.37
2023-02-25T15:05:34.489Z,1.63
2023-02-25T15:08:48.976Z,3.10
2023-02-25T15:11:47.623Z,2.93
2023-02-25T15:15:01.292Z,2.17
2023-02-25T15:18:11.833Z,2.00
2023-02-25T15:20:44.403Z,1.37
2023-02-25T15:23:16.581Z,2.20
2023-02-25T15:25:53.911Z,2.63
2023-02-25T15:28:42.378Z,2.10
2023-02-25T15:31:33.032Z,3.17
2023-02-25T15:34:56.563Z,1.97
2023-02-25T15:37:40.100Z,1.70
2023-02-25T15:40:47.862Z,1.97
2023-02-25T15:43:54.346Z,2.13
2023-02-25T15:46:51.287Z,1.97
2023-02-25T15:49:33.092Z,1.77
2023-02-25T15:52:06.391Z,2.57
2023-02-25T15:54:52.776Z,2.97
2023-02-25T15:57:41.969Z,3.07
2023-02-25T16:00:52.007Z,3.67
2023-02-25T16:03:45.715Z,2.40
2023-02-25T16:06:23.396Z,3.47
2023-02-25T16:09:04.174Z,2.30
2023-02-25T16:11:40.923Z,2.37
2023-02-25T16:14:22.058Z,1.60
2023-02-25T16:16:58.264Z,2.03
2023-02-25T16:19:36.226Z,1.63
2023-02-25T16:22:16.214Z,2.40
2023-02-25T16:24:52.154Z,2.13
2023-02-25T16:27:41.758Z,2.40
2023-02-25T16:30:24.316Z,2.20
2023-02-25T16:33:06.632Z,2.27
2023-02-25T16:35:53.403Z,2.00
2023-02-25T16:38:38.277Z,2.50
2023-02-25T16:41:08.933Z,2.57
2023-02-25T16:43:43.254Z,3.20
2023-02-25T16:46:17.951Z,2.77
2023-02-25T16:48:56.308Z,2.40
2023-02-25T16:51:34.791Z,3.20
2023-02-25T16:54:11.843Z,2.33
2023-02-25T16:56:46.394Z,3.17
2023-02-25T16:59:24.062Z,3.27
2023-02-25T17:02:00.519Z,3.50
2023-02-25T17:04:34.585Z,2.87
2023-02-25T17:07:17.944Z,2.37
2023-02-25T17:09:52.190Z,5.07
2023-02-25T17:12:26.518Z,4.43
2023-02-25T17:14:58.404Z,3.13
2023-02-25T17:17:34.834Z,3.10
2023-02-25T17:20:11.907Z,2.90
2023-02-25T17:22:47.577Z,2.93
2023-02-25T17:25:19.553Z,5.87
2023-02-25T17:27:52.616Z,3.37
2023-02-25T17:30:46.220Z,3.63
2023-02-25T17:33:27.098Z,3.00
2023-02-25T17:36:02.244Z,2.67
2023-02-25T17:38:35.124Z,2.67
2023-02-25T17:41:05.883Z,2.90
2023-02-25T17:43:41.068Z,3.23
2023-02-25T17:46:26.641Z,2.57
2023-02-25T17:49:00.388Z,2.00
2023-02-25T17:51:37.009Z,1.40
2023-02-25T17:54:18.305Z,1.70
2023-02-25T17:56:49.083Z,1.77
2023-02-25T17:59:38.924Z,1.77
2023-02-25T18:02:33.066Z,1.90
2023-02-25T18:05:28.452Z,1.90
2023-02-25T18:08:22.410Z,1.40
2023-02-25T18:11:07.250Z,1.73
2023-02-25T18:13:40.051Z,2.80
2023-02-25T18:16:39.591Z,1.63
2023-02-25T18:19:27.565Z,1.83
2023-02-25T18:21:57.894Z,2.30
2023-02-25T18:24:33.244Z,2.10
2023-02-25T18:27:30.395Z,2.40
2023-02-25T18:30:18.230Z,2.53
2023-02-25T18:32:48.530Z,2.63
2023-02-25T18:35:20.500Z,1.93
2023-02-25T18:37:54.856Z,2.30
2023-02-25T18:40:30.821Z,2.20
2023-02-25T18:43:03.918Z,2.23
2023-02-25T18:45:36.419Z,2.97
2023-02-25T18:48:06.615Z,3.33
2023-02-25T18:50:37.465Z,3.17
2023-02-25T18:53:07.533Z,4.83
2023-02-25T18:55:37.635Z,5.17
2023-02-25T18:58:16.492Z,4.77
2023-02-25T19:00:49.180Z,5.70
2023-02-25T19:03:26.034Z,6.80
2023-02-25T19:05:56.891Z,6.87
2023-02-25T19:08:27.818Z,5.80
2023-02-25T19:10:58.908Z,5.80
2023-02-25T19:13:36.214Z,5.90
2023-02-25T19:16:07.028Z,5.50
2023-02-25T19:18:38.030Z,5.47
2023-02-25T19:21:15.995Z,6.40
2023-02-25T19:23:45.998Z,6.07
2023-02-25T19:26:17.256Z,5.60
2023-02-25T19:28:49.853Z,5.30
2023-02-25T19:31:20.643Z,7.23
2023-02-25T19:33:50.600Z,7.10
2023-02-25T19:36:21.279Z,5.70
2023-02-25T19:38:51.240Z,6.67
2023-02-25T19:41:21.233Z,6.40
2023-02-25T19:43:54.337Z,8.00
2023-02-25T19:46:24.550Z,7.40
2023-02-25T19:48:54.689Z,7.20
2023-02-25T19:51:24.629Z,9.80
2023-02-25T19:53:54.593Z,8.23
2023-02-25T19:56:25.548Z,7.13
2023-02-25T19:59:02.513Z,6.87
2023-02-25T20:01:33.356Z,6.83
2023-02-25T20:04:03.527Z,6.37
2023-02-25T20:06:33.478Z,5.80
2023-02-25T20:09:04.947Z,7.90
2023-02-25T20:11:36.001Z,7.60
2023-02-25T20:14:09.367Z,8.00
2023-02-25T20:16:39.819Z,9.03
2023-02-25T20:19:11.046Z,8.10
2023-02-25T20:21:41.072Z,9.20
2023-02-25T20:24:11.678Z,7.63
2023-02-25T20:26:41.769Z,8.20
2023-02-25T20:29:14.285Z,7.83
2023-02-25T20:31:45.245Z,7.13
2023-02-25T20:34:19.172Z,6.50
2023-02-25T20:36:57.279Z,7.57
2023-02-25T20:39:53.795Z,7.47
2023-02-25T20:42:27.775Z,7.87
2023-02-25T20:45:02.522Z,7.87
2023-02-25T20:47:37.299Z,8.27
2023-02-25T20:50:11.240Z,8.97
2023-02-25T20:52:41.501Z,8.27
2023-02-25T20:55:13.547Z,7.53
2023-02-25T20:57:43.521Z,6.77
2023-02-25T21:00:20.550Z,5.47
2023-02-25T21:02:50.708Z,7.23
2023-02-25T21:05:20.674Z,7.80
2023-02-25T21:07:51.806Z,6.77
2023-02-25T21:10:22.112Z,6.37
2023-02-25T21:12:52.333Z,7.23
2023-02-25T21:15:24.887Z,6.23
2023-02-25T21:17:54.842Z,6.70
2023-02-25T21:20:24.768Z,7.70
2023-02-25T21:22:54.712Z,6.53
2023-02-25T21:25:24.650Z,4.97
2023-02-25T21:27:55.618Z,5.80
2023-02-25T21:30:28.426Z,6.63
2023-02-25T21:32:58.497Z,5.30
2023-02-25T21:35:28.531Z,5.37
2023-02-25T21:37:58.747Z,4.60
2023-02-25T21:40:28.760Z,6.63
2023-02-25T21:42:59.512Z,5.53
2023-02-25T21:45:32.727Z,4.27
2023-02-25T21:48:02.810Z,4.20
2023-02-25T21:50:33.207Z,4.83
2023-02-25T21:53:03.228Z,5.60
2023-02-25T21:55:33.213Z,4.40
2023-02-25T21:58:03.153Z,5.07
2023-02-25T22:00:35.797Z,4.80
2023-02-25T22:03:06.151Z,4.77
2023-02-25T22:05:36.514Z,3.87
2023-02-25T22:08:07.882Z,4.20
2023-02-25T22:10:39.973Z,3.73
2023-02-25T22:13:10.186Z,3.40
2023-02-25T22:15:43.704Z,4.13
2023-02-25T22:18:13.912Z,4.17
2023-02-25T22:20:44.367Z,3.57
2023-02-25T22:23:14.445Z,2.90
2023-02-25T22:25:44.563Z,2.70
2023-02-25T22:28:14.573Z,3.23
2023-02-25T22:30:49.528Z,2.87
2023-02-25T22:33:19.520Z,2.57
2023-02-25T22:35:57.666Z,3.57
2023-02-25T22:38:30.106Z,2.40
2023-02-25T22:41:01.398Z,2.90
2023-02-25T22:43:32.545Z,2.43
2023-02-25T22:46:15.679Z,3.07
2023-02-25T22:48:48.887Z,2.40
2023-02-25T22:51:23.581Z,2.90
2023-02-25T22:53:55.088Z,2.40
2023-02-25T22:56:26.272Z,2.53
2023-02-25T22:58:57.507Z,2.67
2023-02-25T23:01:30.724Z,4.07
2023-02-25T23:04:01.827Z,3.33
2023-02-25T23:06:43.374Z,2.33
2023-02-25T23:09:14.233Z,2.53
2023-02-25T23:11:46.490Z,2.93
2023-02-25T23:14:17.277Z,2.20
2023-02-25T23:16:50.011Z,2.40
2023-02-25T23:19:21.746Z,2.60
2023-02-25T23:21:51.710Z,2.70
2023-02-25T23:24:21.925Z,2.40
2023-02-25T23:26:54.337Z,1.73
2023-02-25T23:29:24.395Z,1.93
2023-02-25T23:31:57.063Z,2.70
2023-02-25T23:34:27.405Z,2.10
2023-02-25T23:36:59.855Z,2.70
2023-02-25T23:39:30.522Z,2.50
2023-02-25T23:42:00.486Z,2.43
2023-02-25T23:44:30.469Z,2.20
2023-02-25T23:47:03.115Z,2.33
2023-02-25T23:49:33.218Z,2.50
2023-02-25T23:52:04.018Z,2.87
2023-02-25T23:54:34.069Z,2.50
2023-02-25T23:57:04.065Z,2.70
2023-02-25T23:59:34.154Z,2.17
